createdAt,value
2023-03-29T00:05:04.942Z,100680.00
2023-03-29T00:10:06.412Z,100673.59
2023-03-29T00:15:08.664Z,100660.03
2023-03-29T00:20:10.567Z,100656.66
2023-03-29T00:25:12.836Z,100669.25
2023-03-29T00:30:15.306Z,100674.44
2023-03-29T00:35:17.152Z,100664.09
2023-03-29T00:40:18.525Z,100655.06
2023-03-29T00:45:25.518Z,100659.75
2023-03-29T00:50:36.184Z,100654.22
2023-03-29T00:55:40.464Z,100648.22
2023-03-29T01:00:52.229Z,100638.34
2023-03-29T01:06:00.295Z,100624.25
2023-03-29T01:11:22.107Z,100632.25
2023-03-29T01:16:25.654Z,100621.22
2023-03-29T01:21:32.838Z,100612.66
2023-03-29T01:26:48.493Z,100601.75
2023-03-29T01:31:59.469Z,100586.50
2023-03-29T01:37:07.679Z,100583.31
2023-03-29T01:42:35.642Z,100578.47
2023-03-29T01:47:50.275Z,100576.63
2023-03-29T01:53:01.213Z,100569.25
2023-03-29T01:58:05.021Z,100573.31
2023-03-29T02:03:09.358Z,100583.03
2023-03-29T02:08:14.621Z,100567.22
2023-03-29T02:13:17.951Z,100573.63
2023-03-29T02:18:20.252Z,100567.59
2023-03-29T02:23:27.344Z,100555.50
2023-03-29T02:28:30.072Z,100551.13
2023-03-29T02:33:42.016Z,100550.28
2023-03-29T02:38:43.856Z,100557.50
2023-03-29T02:43:48.301Z,100550.44
2023-03-29T02:48:52.125Z,100547.44
2023-03-29T02:54:12.801Z,100533.66
2023-03-29T02:59:15.073Z,100534.00
2023-03-29T03:04:20.696Z,100526.13
2023-03-29T03:09:22.066Z,100517.03
2023-03-29T03:14:23.398Z,100512.84
2023-03-29T03:19:24.800Z,100498.59
2023-03-29T03:24:27.930Z,100504.78
2023-03-29T03:29:29.748Z,100504.13
2023-03-29T03:34:31.104Z,100501.09
2023-03-29T03:39:32.555Z,100499.75
2023-03-29T03:44:34.174Z,100499.78
2023-03-29T03:49:35.810Z,100493.75
2023-03-29T03:54:37.137Z,100494.75
2023-03-29T03:59:38.961Z,100490.56
2023-03-29T04:04:41.231Z,100491.75
2023-03-29T04:09:43.077Z,100492.75
2023-03-29T04:14:44.733Z,100494.06
2023-03-29T04:19:46.156Z,100485.03
2023-03-29T04:24:47.461Z,100482.34
2023-03-29T04:29:48.908Z,100487.06
2023-03-29T04:34:50.473Z,100481.00
2023-03-29T04:39:52.445Z,100479.66
2023-03-29T04:44:54.601Z,100471.63
2023-03-29T04:49:56.146Z,100474.97
2023-03-29T04:54:57.476Z,100472.81
2023-03-29T04:59:58.837Z,100467.59
2023-03-29T05:05:00.191Z,100467.25
2023-03-29T05:10:01.946Z,100464.41
2023-03-29T05:15:05.104Z,100463.41
2023-03-29T05:20:09.615Z,100463.41
2023-03-29T05:25:11.742Z,100477.50
2023-03-29T05:30:15.206Z,100468.59
2023-03-29T05:35:16.683Z,100474.13
2023-03-29T05:40:18.213Z,100469.94
2023-03-29T05:45:20.195Z,100463.06
2023-03-29T05:50:21.577Z,100465.22
2023-03-29T05:55:23.632Z,100464.41
2023-03-29T06:00:25.619Z,100457.50
2023-03-29T06:05:27.535Z,100455.66
2023-03-29T06:10:28.958Z,100456.47
2023-03-29T06:15:30.295Z,100445.06
2023-03-29T06:20:32.754Z,100461.66
2023-03-29T06:25:35.239Z,100473.78
2023-03-29T06:30:36.578Z,100479.78
2023-03-29T06:35:43.518Z,100480.16
2023-03-29T06:40:45.408Z,100482.47
2023-03-29T06:45:46.917Z,100480.00
2023-03-29T06:50:49.240Z,100478.63
2023-03-29T06:55:51.927Z,100473.97
2023-03-29T07:00:53.850Z,100471.56
2023-03-29T07:06:03.446Z,100471.06
2023-03-29T07:11:05.413Z,100474.56
2023-03-29T07:16:07.520Z,100481.25
2023-03-29T07:21:10.564Z,100475.34
2023-03-29T07:26:12.139Z,100486.22
2023-03-29T07:31:15.503Z,100476.41
2023-03-29T07:36:16.899Z,100487.56
2023-03-29T07:41:18.288Z,100495.28
2023-03-29T07:46:20.331Z,100500.00
2023-03-29T07:51:22.045Z,100508.19
2023-03-29T07:56:23.920Z,100498.06
2023-03-29T08:01:25.490Z,100494.66
2023-03-29T08:06:27.460Z,100509.47
2023-03-29T08:11:28.902Z,100500.53
2023-03-29T08:16:30.260Z,100499.22
2023-03-29T08:21:31.713Z,100489.44
2023-03-29T08:26:33.151Z,100499.31
2023-03-29T08:31:34.526Z,100483.13
2023-03-29T08:36:36.012Z,100491.84
2023-03-29T08:41:55.021Z,100484.28
2023-03-29T08:47:07.131Z,100482.84
2023-03-29T08:52:20.318Z,100473.97
2023-03-29T08:57:27.138Z,100464.03
2023-03-29T09:02:34.033Z,100469.00
2023-03-29T09:07:35.491Z,100467.00
2023-03-29T09:12:45.794Z,100471.84
2023-03-29T09:18:22.204Z,100475.66
2023-03-29T09:23:48.252Z,100460.78
2023-03-29T09:29:16.572Z,100469.75
2023-03-29T09:34:30.825Z,100471.81
2023-03-29T09:39:32.250Z,100464.84
2023-03-29T09:44:40.775Z,100452.56
2023-03-29T09:49:47.035Z,100456.13
2023-03-29T09:54:49.385Z,100466.75
2023-03-29T09:59:52.403Z,100464.66
2023-03-29T10:05:03.841Z,100465.91
2023-03-29T10:10:10.300Z,100469.19
2023-03-29T10:15:23.235Z,100451.75
2023-03-29T10:20:30.667Z,100456.00
2023-03-29T10:25:33.947Z,100461.28
2023-03-29T10:30:37.817Z,100444.94
2023-03-29T10:35:41.781Z,100430.28
2023-03-29T10:40:47.046Z,100415.06
2023-03-29T10:45:50.815Z,100416.34
2023-03-29T10:50:53.139Z,100411.41
2023-03-29T10:56:07.683Z,100405.31
2023-03-29T11:01:20.998Z,100408.34
2023-03-29T11:06:36.698Z,100419.34
2023-03-29T11:12:15.532Z,100418.16
2023-03-29T11:17:43.449Z,100419.69
2023-03-29T11:23:03.467Z,100413.28
2023-03-29T11:28:13.831Z,100411.63
2023-03-29T11:33:46.738Z,100402.66
2023-03-29T11:39:11.262Z,100406.03
2023-03-29T11:44:29.653Z,100396.47
2023-03-29T11:49:56.076Z,100389.31
2023-03-29T11:55:02.627Z,100382.25
2023-03-29T12:00:33.355Z,100389.94
2023-03-29T12:05:54.590Z,100374.72
2023-03-29T12:11:11.858Z,100376.34
2023-03-29T12:16:24.737Z,100358.78
2023-03-29T12:21:29.613Z,100351.53
2023-03-29T12:26:46.776Z,100348.47
2023-03-29T12:31:55.010Z,100349.06
2023-03-29T12:37:27.371Z,100342.81
2023-03-29T12:42:28.799Z,100320.91
2023-03-29T12:47:43.183Z,100330.69
2023-03-29T12:52:44.834Z,100325.25
2023-03-29T12:57:59.850Z,100316.94
2023-03-29T13:03:19.066Z,100318.13
2023-03-29T13:08:38.287Z,100307.34
2023-03-29T13:13:41.728Z,100301.72
2023-03-29T13:18:56.195Z,100292.19
2023-03-29T13:24:18.560Z,100285.56
2023-03-29T13:29:33.613Z,100283.22
2023-03-29T13:34:45.112Z,100269.84
2023-03-29T13:39:52.848Z,100273.94
2023-03-29T13:45:10.401Z,100269.69
2023-03-29T13:50:29.112Z,100264.69
2023-03-29T13:55:38.434Z,100252.06
2023-03-29T14:00:48.278Z,100245.88
2023-03-29T14:05:57.600Z,100243.94
2023-03-29T14:11:07.579Z,100259.13
2023-03-29T14:16:11.785Z,100248.50
2023-03-29T14:21:14.666Z,100246.34
2023-03-29T14:26:19.736Z,100229.50
2023-03-29T14:31:26.673Z,100227.53
2023-03-29T14:36:28.762Z,100225.66
2023-03-29T14:41:32.574Z,100218.53
2023-03-29T14:46:35.025Z,100216.06
2023-03-29T14:51:36.858Z,100205.41
2023-03-29T14:56:38.305Z,100200.66
2023-03-29T15:01:44.401Z,100186.78
2023-03-29T15:06:46.902Z,100181.81
2023-03-29T15:11:53.907Z,100170.22
2023-03-29T15:16:58.917Z,100155.34
2023-03-29T15:22:05.940Z,100155.44
2023-03-29T15:27:14.582Z,100158.53
2023-03-29T15:32:24.560Z,100150.34
2023-03-29T15:37:26.541Z,100149.38
2023-03-29T15:42:27.916Z,100144.06
2023-03-29T15:47:30.778Z,100146.22
2023-03-29T15:52:32.533Z,100136.97
2023-03-29T15:57:34.113Z,100133.00
2023-03-29T16:02:35.945Z,100131.47
2023-03-29T16:07:37.488Z,100118.66
2023-03-29T16:12:39.140Z,100117.22
2023-03-29T16:17:40.875Z,100112.47
2023-03-29T16:22:42.477Z,100108.00
2023-03-29T16:27:43.900Z,100104.53
2023-03-29T16:32:45.736Z,100103.97
2023-03-29T16:37:47.167Z,100095.34
2023-03-29T16:42:48.517Z,100101.53
2023-03-29T16:47:50.049Z,100092.59
2023-03-29T16:52:52.441Z,100090.69
2023-03-29T16:57:53.810Z,100093.28
2023-03-29T17:02:55.983Z,100084.63
2023-03-29T17:07:57.453Z,100084.59
2023-03-29T17:12:58.798Z,100079.88
2023-03-29T17:18:00.266Z,100077.75
2023-03-29T17:23:01.676Z,100074.81
2023-03-29T17:28:04.009Z,100075.16
2023-03-29T17:33:06.024Z,100060.13
2023-03-29T17:38:07.566Z,100058.94
2023-03-29T17:43:08.973Z,100070.28
2023-03-29T17:48:10.543Z,100060.44
2023-03-29T17:53:13.200Z,100049.91
2023-03-29T17:58:14.672Z,100049.31
2023-03-29T18:03:16.093Z,100052.25
2023-03-29T18:08:17.487Z,100028.25
2023-03-29T18:13:24.337Z,100038.72
2023-03-29T18:18:26.555Z,100035.09
2023-03-29T18:23:28.095Z,100049.25
2023-03-29T18:28:30.505Z,100053.88
2023-03-29T18:33:35.204Z,100058.31
2023-03-29T18:38:36.672Z,100052.44
2023-03-29T18:43:39.687Z,100031.84
2023-03-29T18:48:41.743Z,100032.28
2023-03-29T18:53:44.234Z,100033.59
2023-03-29T18:58:46.264Z,100036.84
2023-03-29T19:03:47.981Z,100020.84
2023-03-29T19:08:49.520Z,100052.47
2023-03-29T19:13:52.167Z,100061.59
2023-03-29T19:18:53.578Z,100046.94
2023-03-29T19:23:54.924Z,100057.59
2023-03-29T19:28:56.284Z,100059.78
2023-03-29T19:33:57.652Z,100056.47
2023-03-29T19:38:59.448Z,100050.19
2023-03-29T19:44:01.191Z,100047.66
2023-03-29T19:49:04.414Z,100050.91
2023-03-29T19:54:07.218Z,100050.72
2023-03-29T19:59:11.124Z,100027.34
2023-03-29T20:04:12.576Z,100012.53
2023-03-29T20:09:16.075Z,100009.81
2023-03-29T20:14:17.515Z,100000.88
2023-03-29T20:19:23.581Z,99986.41
2023-03-29T20:24:25.512Z,99977.06
2023-03-29T20:29:27.581Z,99957.91
2023-03-29T20:34:29.342Z,99944.19
2023-03-29T20:39:31.408Z,99937.56
2023-03-29T20:44:35.220Z,99951.38
2023-03-29T20:49:37.499Z,99933.28
2023-03-29T20:54:39.056Z,99938.31
2023-03-29T20:59:41.501Z,99938.41
2023-03-29T21:04:43.985Z,99933.88
2023-03-29T21:09:47.214Z,99933.31
2023-03-29T21:14:48.690Z,99928.16
2023-03-29T21:19:50.108Z,99910.50
2023-03-29T21:24:51.539Z,99905.72
2023-03-29T21:29:52.873Z,99901.19
2023-03-29T21:34:54.246Z,99895.63
2023-03-29T21:39:55.845Z,99890.84
2023-03-29T21:44:57.214Z,99877.13
2023-03-29T21:49:58.633Z,99868.81
2023-03-29T21:55:00.175Z,99873.84
2023-03-29T22:00:01.647Z,99876.22
2023-03-29T22:05:03.661Z,99865.66
2023-03-29T22:10:11.617Z,99871.34
2023-03-29T22:15:13.122Z,99857.59
2023-03-29T22:20:14.760Z,99833.28
2023-03-29T22:25:17.848Z,99836.44
2023-03-29T22:30:19.312Z,99838.56
2023-03-29T22:35:20.667Z,99834.63
2023-03-29T22:40:22.009Z,99842.78
2023-03-29T22:45:23.447Z,99839.69
2023-03-29T22:50:24.811Z,99846.56
2023-03-29T22:55:26.289Z,99854.72
2023-03-29T23:00:27.708Z,99853.47
2023-03-29T23:05:29.285Z,99834.31
2023-03-29T23:10:30.769Z,99836.66
2023-03-29T23:15:32.274Z,99830.44
2023-03-29T23:20:33.953Z,99821.03
2023-03-29T23:25:35.441Z,99818.09
2023-03-29T23:30:37.222Z,99818.94
